createdAt,value
2019-05-19T00:00:31.500Z,991.37
2019-05-19T00:01:31.482Z,991.32
2019-05-19T00:02:31.468Z,991.35
2019-05-19T00:03:31.503Z,991.37
2019-05-19T00:04:31.477Z,991.32
2019-05-19T00:05:31.432Z,991.36
2019-05-19T00:06:31.454Z,991.33
2019-05-19T00:07:31.433Z,991.33
2019-05-19T00:08:31.429Z,991.32
2019-05-19T00:09:31.402Z,991.32
2019-05-19T00:10:31.416Z,991.31
2019-05-19T00:11:31.372Z,991.27
2019-05-19T00:12:31.359Z,991.28
2019-05-19T00:13:31.343Z,991.28
2019-05-19T00:14:31.344Z,991.30
2019-05-19T00:15:31.324Z,991.30
2019-05-19T00:16:31.319Z,991.27
2019-05-19T00:17:31.312Z,991.28
2019-05-19T00:18:31.288Z,991.23
2019-05-19T00:19:31.289Z,991.25
2019-05-19T00:20:31.275Z,991.27
2019-05-19T00:21:31.292Z,991.25
2019-05-19T00:22:31.257Z,991.22
2019-05-19T00:23:31.244Z,991.27
2019-05-19T00:24:31.235Z,991.26
2019-05-19T00:25:31.229Z,991.26
2019-05-19T00:26:31.215Z,991.25
2019-05-19T00:27:31.207Z,991.20
2019-05-19T00:28:31.191Z,991.24
2019-05-19T00:29:31.199Z,991.20
2019-05-19T00:30:31.160Z,991.16
2019-05-19T00:31:31.149Z,991.16
2019-05-19T00:32:31.149Z,991.19
2019-05-19T00:33:31.127Z,991.15
2019-05-19T00:34:31.123Z,991.17
2019-05-19T00:35:31.120Z,991.11
2019-05-19T00:36:31.112Z,991.19
2019-05-19T00:37:31.135Z,991.19
2019-05-19T00:38:31.072Z,991.20
2019-05-19T00:39:31.066Z,991.22
2019-05-19T00:40:31.068Z,991.16
2019-05-19T00:41:31.043Z,991.24
2019-05-19T00:42:31.027Z,991.24
2019-05-19T00:43:31.043Z,991.20
2019-05-19T00:44:31.004Z,991.24
2019-05-19T00:45:31.013Z,991.24
2019-05-19T00:46:31.003Z,991.17
2019-05-19T00:47:30.968Z,991.20
2019-05-19T00:48:30.960Z,991.22
2019-05-19T00:49:40.991Z,991.24
2019-05-19T00:50:31.935Z,991.27
2019-05-19T00:51:30.929Z,991.25
2019-05-19T00:52:30.928Z,991.24
2019-05-19T00:53:30.932Z,991.26
2019-05-19T00:54:30.900Z,991.28
2019-05-19T00:55:30.880Z,991.26
2019-05-19T00:56:30.871Z,991.28
2019-05-19T00:57:30.881Z,991.22
2019-05-19T00:58:30.864Z,991.26
2019-05-19T00:59:30.835Z,991.22
2019-05-19T01:00:30.827Z,991.23
2019-05-19T01:01:30.815Z,991.23
2019-05-19T01:02:30.803Z,991.22
2019-05-19T01:03:30.812Z,991.22
2019-05-19T01:04:30.783Z,991.20
2019-05-19T01:05:30.767Z,991.19
2019-05-19T01:06:30.763Z,991.16
2019-05-19T01:07:30.751Z,991.10
2019-05-19T01:08:30.774Z,991.09
2019-05-19T01:09:30.747Z,991.10
2019-05-19T01:10:30.717Z,991.07
2019-05-19T01:11:30.707Z,991.08
2019-05-19T01:12:30.696Z,991.05
2019-05-19T01:13:30.683Z,991.06
2019-05-19T01:14:30.672Z,991.05
2019-05-19T01:15:30.720Z,991.05
2019-05-19T01:16:30.656Z,991.00
2019-05-19T01:17:30.644Z,991.04
2019-05-19T01:18:30.631Z,991.04
2019-05-19T01:19:30.623Z,990.96
2019-05-19T01:20:30.605Z,990.95
2019-05-19T01:21:30.640Z,990.99
2019-05-19T01:22:30.583Z,990.97
2019-05-19T01:23:30.595Z,990.99
2019-05-19T01:24:30.571Z,990.94
2019-05-19T01:25:30.551Z,990.88
2019-05-19T01:26:30.575Z,990.90
2019-05-19T01:27:30.531Z,990.87
2019-05-19T01:28:30.580Z,990.87
2019-05-19T01:29:30.507Z,990.84
2019-05-19T01:30:30.545Z,990.86
2019-05-19T01:31:30.487Z,990.83
2019-05-19T01:32:30.516Z,990.85
2019-05-19T01:33:30.491Z,990.81
2019-05-19T01:34:30.580Z,990.85
2019-05-19T01:35:30.447Z,990.83
2019-05-19T01:36:30.541Z,990.86
2019-05-19T01:37:30.442Z,990.84
2019-05-19T01:38:30.422Z,990.92
2019-05-19T01:39:30.475Z,990.89
2019-05-19T01:40:30.415Z,990.91
2019-05-19T01:41:30.406Z,990.91
2019-05-19T01:42:30.361Z,990.89
2019-05-19T01:43:30.352Z,990.91
2019-05-19T01:44:30.340Z,990.89
2019-05-19T01:45:30.339Z,990.86
2019-05-19T01:46:30.359Z,990.84
2019-05-19T01:47:30.308Z,990.86
2019-05-19T01:48:30.296Z,990.86
2019-05-19T01:49:30.321Z,990.86
2019-05-19T01:50:30.311Z,990.87
2019-05-19T01:51:30.267Z,990.85
2019-05-19T01:52:30.261Z,990.87
2019-05-19T01:53:30.248Z,990.87
2019-05-19T01:54:30.243Z,990.87
2019-05-19T01:55:30.233Z,990.88
2019-05-19T01:56:30.207Z,990.87
2019-05-19T01:57:30.195Z,990.87
2019-05-19T01:58:30.209Z,990.90
2019-05-19T01:59:30.178Z,990.84
2019-05-19T02:00:30.236Z,990.87
2019-05-19T02:01:30.176Z,990.89
2019-05-19T02:02:30.137Z,990.92
2019-05-19T02:03:30.124Z,990.87
2019-05-19T02:04:30.126Z,990.91
2019-05-19T02:05:30.120Z,990.87
2019-05-19T02:06:30.117Z,990.84
2019-05-19T02:07:30.095Z,990.85
2019-05-19T02:08:30.089Z,990.81
2019-05-19T02:09:30.072Z,990.76
2019-05-19T02:10:30.061Z,990.78
2019-05-19T02:11:30.042Z,990.77
2019-05-19T02:12:30.060Z,990.75
2019-05-19T02:13:30.035Z,990.78
2019-05-19T02:14:30.011Z,990.77
2019-05-19T02:15:30.011Z,990.80
2019-05-19T02:16:30.023Z,990.78
2019-05-19T02:17:29.973Z,990.80
2019-05-19T02:18:29.965Z,990.77
2019-05-19T02:19:29.955Z,990.79
2019-05-19T02:20:33.181Z,990.86
2019-05-19T02:21:29.948Z,990.84
2019-05-19T02:22:29.913Z,990.80
2019-05-19T02:23:29.923Z,990.81
2019-05-19T02:24:29.892Z,990.83
2019-05-19T02:25:29.895Z,990.79
2019-05-19T02:26:29.887Z,990.79
2019-05-19T02:27:29.869Z,990.78
2019-05-19T02:28:29.851Z,990.78
2019-05-19T02:29:29.855Z,990.77
2019-05-19T02:30:29.840Z,990.77
2019-05-19T02:31:29.843Z,990.74
2019-05-19T02:32:29.839Z,990.73
2019-05-19T02:33:29.815Z,990.75
2019-05-19T02:34:29.787Z,990.77
2019-05-19T02:35:29.772Z,990.76
2019-05-19T02:36:29.767Z,990.71
2019-05-19T02:37:29.753Z,990.69
2019-05-19T02:38:29.765Z,990.73
2019-05-19T02:39:29.741Z,990.75
2019-05-19T02:40:29.771Z,990.76
2019-05-19T02:41:29.713Z,990.72
2019-05-19T02:42:29.702Z,990.73
2019-05-19T02:43:29.692Z,990.75
2019-05-19T02:44:29.684Z,990.71
2019-05-19T02:45:29.676Z,990.70
2019-05-19T02:46:29.657Z,990.73
2019-05-19T02:47:29.646Z,990.71
2019-05-19T02:48:29.636Z,990.71
2019-05-19T02:49:29.653Z,990.69
2019-05-19T02:50:29.617Z,990.72
2019-05-19T02:51:29.593Z,990.71
2019-05-19T02:52:29.590Z,990.73
2019-05-19T02:53:29.569Z,990.74
2019-05-19T02:54:29.596Z,990.73
2019-05-19T02:55:29.565Z,990.74
2019-05-19T02:56:29.557Z,990.74
2019-05-19T02:57:29.527Z,990.73
2019-05-19T02:58:29.520Z,990.77
2019-05-19T02:59:29.519Z,990.75
2019-05-19T03:00:29.525Z,990.80
2019-05-19T03:01:29.482Z,990.73
2019-05-19T03:02:29.504Z,990.74
2019-05-19T03:03:29.479Z,990.77
2019-05-19T03:04:29.476Z,990.72
2019-05-19T03:05:29.459Z,990.73
2019-05-19T03:06:29.431Z,990.72
2019-05-19T03:07:29.443Z,990.68
2019-05-19T03:08:29.417Z,990.70
2019-05-19T03:09:29.403Z,990.73
2019-05-19T03:10:29.378Z,990.72
2019-05-19T03:11:29.394Z,990.70
2019-05-19T03:12:29.369Z,990.70
2019-05-19T03:13:29.351Z,990.69
2019-05-19T03:14:29.360Z,990.68
2019-05-19T03:15:29.332Z,990.69
2019-05-19T03:16:29.343Z,990.70
2019-05-19T03:17:29.307Z,990.67
2019-05-19T03:18:29.323Z,990.67
2019-05-19T03:19:29.299Z,990.68
2019-05-19T03:20:29.269Z,990.65
2019-05-19T03:21:29.277Z,990.66
2019-05-19T03:22:29.283Z,990.62
2019-05-19T03:23:29.247Z,990.61
2019-05-19T03:24:29.226Z,990.61
2019-05-19T03:25:29.217Z,990.60
2019-05-19T03:26:29.224Z,990.59
2019-05-19T03:27:29.208Z,990.58
2019-05-19T03:28:29.212Z,990.58
2019-05-19T03:29:29.173Z,990.53
2019-05-19T03:30:29.177Z,990.52
2019-05-19T03:31:29.178Z,990.54
2019-05-19T03:32:29.149Z,990.54
2019-05-19T03:33:29.130Z,990.58
2019-05-19T03:34:29.364Z,990.60
2019-05-19T03:35:29.132Z,990.60
2019-05-19T03:36:29.096Z,990.56
2019-05-19T03:37:29.141Z,990.61
2019-05-19T03:38:29.088Z,990.62
2019-05-19T03:39:29.087Z,990.60
2019-05-19T03:40:29.048Z,990.64
2019-05-19T03:41:29.046Z,990.59
2019-05-19T03:42:29.035Z,990.61
2019-05-19T03:43:29.018Z,990.59
2019-05-19T03:44:29.014Z,990.62
2019-05-19T03:45:29.008Z,990.60
2019-05-19T03:46:28.983Z,990.62
2019-05-19T03:47:28.967Z,990.58
2019-05-19T03:48:28.963Z,990.58
2019-05-19T03:49:28.955Z,990.65
2019-05-19T03:50:29.026Z,990.60
2019-05-19T03:51:31.376Z,990.63
2019-05-19T03:52:28.927Z,990.60
2019-05-19T03:53:28.909Z,990.65
2019-05-19T03:54:28.892Z,990.65
2019-05-19T03:55:28.927Z,990.69
2019-05-19T03:56:28.881Z,990.65
2019-05-19T03:57:28.871Z,990.68
2019-05-19T03:58:28.875Z,990.69
2019-05-19T03:59:28.828Z,990.71
2019-05-19T04:00:28.830Z,990.73
2019-05-19T04:01:28.848Z,990.72
2019-05-19T04:02:28.824Z,990.71
2019-05-19T04:03:28.794Z,990.72
2019-05-19T04:04:28.778Z,990.69
2019-05-19T04:05:28.773Z,990.72
2019-05-19T04:06:28.773Z,990.68
2019-05-19T04:07:28.768Z,990.74
2019-05-19T04:08:28.732Z,990.73
2019-05-19T04:09:28.730Z,990.72
2019-05-19T04:10:28.711Z,990.69
2019-05-19T04:11:28.703Z,990.75
2019-05-19T04:12:28.702Z,990.73
2019-05-19T04:13:28.692Z,990.76
2019-05-19T04:14:28.700Z,990.75
2019-05-19T04:15:28.659Z,990.77
2019-05-19T04:16:28.665Z,990.77
2019-05-19T04:17:28.635Z,990.76
2019-05-19T04:18:28.639Z,990.79
2019-05-19T04:19:28.608Z,990.77
2019-05-19T04:20:28.625Z,990.75
2019-05-19T04:21:28.597Z,990.80
2019-05-19T04:22:28.579Z,990.79
2019-05-19T04:23:28.565Z,990.82
2019-05-19T04:24:28.596Z,990.83
2019-05-19T04:25:28.548Z,990.84
2019-05-19T04:26:28.547Z,990.86
2019-05-19T04:27:28.521Z,990.83
2019-05-19T04:28:28.507Z,990.88
2019-05-19T04:29:28.504Z,990.86
2019-05-19T04:30:28.525Z,990.86
2019-05-19T04:31:28.484Z,990.86
2019-05-19T04:32:28.487Z,990.84
2019-05-19T04:33:28.464Z,990.84
2019-05-19T04:34:28.457Z,990.80
2019-05-19T04:35:28.436Z,990.83
2019-05-19T04:36:28.434Z,990.77
2019-05-19T04:37:28.436Z,990.86
2019-05-19T04:38:28.392Z,990.81
2019-05-19T04:39:28.403Z,990.85
2019-05-19T04:40:28.409Z,990.85
2019-05-19T04:41:28.375Z,990.84
2019-05-19T04:42:28.355Z,990.85
2019-05-19T04:43:28.340Z,990.84
2019-05-19T04:44:28.328Z,990.82
2019-05-19T04:45:28.322Z,990.84
2019-05-19T04:46:28.360Z,990.82
2019-05-19T04:47:28.294Z,990.84
2019-05-19T04:48:28.291Z,990.83
2019-05-19T04:49:28.284Z,990.84
2019-05-19T04:50:28.259Z,990.82
2019-05-19T04:51:28.271Z,990.84
2019-05-19T04:52:28.259Z,990.84
2019-05-19T04:53:28.259Z,990.83
2019-05-19T04:54:28.233Z,990.81
2019-05-19T04:55:28.235Z,990.83
2019-05-19T04:56:28.198Z,990.82
2019-05-19T04:57:28.197Z,990.78
2019-05-19T04:58:28.211Z,990.82
2019-05-19T04:59:28.164Z,990.82
2019-05-19T05:00:28.154Z,990.84
2019-05-19T05:01:28.164Z,990.84
2019-05-19T05:02:28.143Z,990.85
2019-05-19T05:03:28.111Z,990.83
2019-05-19T05:04:29.447Z,990.77
2019-05-19T05:05:28.100Z,990.80
2019-05-19T05:06:28.080Z,990.76
2019-05-19T05:07:28.087Z,990.82
2019-05-19T05:08:30.623Z,990.80
2019-05-19T05:09:28.057Z,990.83
2019-05-19T05:10:28.073Z,990.81
2019-05-19T05:11:28.030Z,990.81
2019-05-19T05:12:28.019Z,990.86
2019-05-19T05:13:28.031Z,990.85
2019-05-19T05:14:28.003Z,990.88
2019-05-19T05:15:27.982Z,990.86
2019-05-19T05:16:27.981Z,990.88
2019-05-19T05:17:27.963Z,990.89
2019-05-19T05:18:27.952Z,990.89
2019-05-19T05:19:27.957Z,990.85
2019-05-19T05:20:27.932Z,990.83
2019-05-19T05:21:27.931Z,990.86
2019-05-19T05:22:27.913Z,990.86
2019-05-19T05:23:27.951Z,990.82
2019-05-19T05:24:28.677Z,990.82
2019-05-19T05:25:27.871Z,990.84
2019-05-19T05:26:27.859Z,990.82
2019-05-19T05:27:27.851Z,990.84
2019-05-19T05:28:27.847Z,990.88
2019-05-19T05:29:27.851Z,990.85
2019-05-19T05:30:27.843Z,990.89
2019-05-19T05:31:27.811Z,990.86
2019-05-19T05:32:27.811Z,990.88
2019-05-19T05:33:27.782Z,990.89
2019-05-19T05:34:27.773Z,990.88
2019-05-19T05:35:27.783Z,990.88
2019-05-19T05:36:27.984Z,990.91
2019-05-19T05:37:27.751Z,990.92
2019-05-19T05:38:27.735Z,990.96
2019-05-19T05:39:27.733Z,990.97
2019-05-19T05:40:27.719Z,990.94
2019-05-19T05:41:27.715Z,991.00
2019-05-19T05:42:27.679Z,991.01
2019-05-19T05:43:27.700Z,990.96
2019-05-19T05:44:27.661Z,990.94
2019-05-19T05:45:27.649Z,991.01
2019-05-19T05:46:27.643Z,991.02
2019-05-19T05:47:27.618Z,991.03
2019-05-19T05:48:27.615Z,990.99
2019-05-19T05:49:27.599Z,991.00
2019-05-19T05:50:27.591Z,990.99
2019-05-19T05:51:27.599Z,990.98
2019-05-19T05:52:38.167Z,991.00
2019-05-19T05:53:28.558Z,990.98
2019-05-19T05:54:27.565Z,991.01
2019-05-19T05:55:27.531Z,990.98
2019-05-19T05:56:27.523Z,990.99
2019-05-19T05:57:27.527Z,990.96
2019-05-19T05:58:27.503Z,990.95
2019-05-19T05:59:27.499Z,991.00
2019-05-19T06:00:27.493Z,991.00
2019-05-19T06:01:27.484Z,990.99
2019-05-19T06:02:27.491Z,991.00
2019-05-19T06:03:27.497Z,991.02
2019-05-19T06:04:27.439Z,990.97
2019-05-19T06:05:27.437Z,990.98
2019-05-19T06:06:27.431Z,990.98
2019-05-19T06:07:27.402Z,991.00
2019-05-19T06:08:27.415Z,990.99
2019-05-19T06:09:27.394Z,990.96
2019-05-19T06:10:27.366Z,990.98
2019-05-19T06:11:27.371Z,990.99
2019-05-19T06:12:27.345Z,990.96
2019-05-19T06:13:27.335Z,990.98
2019-05-19T06:14:27.343Z,990.99
2019-05-19T06:15:27.310Z,991.01
2019-05-19T06:16:27.339Z,990.99
2019-05-19T06:17:27.291Z,991.00
2019-05-19T06:18:27.321Z,991.01
2019-05-19T06:19:27.266Z,991.00
2019-05-19T06:20:27.254Z,991.02
2019-05-19T06:21:27.248Z,991.01
2019-05-19T06:22:27.231Z,991.04
2019-05-19T06:23:27.247Z,991.03
2019-05-19T06:24:27.227Z,991.04
2019-05-19T06:25:27.405Z,991.01
2019-05-19T06:26:27.187Z,990.99
2019-05-19T06:27:27.191Z,991.08
2019-05-19T06:28:27.160Z,991.05
2019-05-19T06:29:27.167Z,991.06
2019-05-19T06:30:27.155Z,991.05
2019-05-19T06:31:27.195Z,991.06
2019-05-19T06:32:27.119Z,991.07
2019-05-19T06:33:27.112Z,991.03
2019-05-19T06:34:27.127Z,991.05
2019-05-19T06:35:27.101Z,990.98
2019-05-19T06:36:27.079Z,991.00
2019-05-19T06:37:27.090Z,991.06
2019-05-19T06:38:27.094Z,990.97
2019-05-19T06:39:27.044Z,990.98
2019-05-19T06:40:27.051Z,990.99
2019-05-19T06:41:27.022Z,990.95
2019-05-19T06:42:27.035Z,991.03
2019-05-19T06:43:27.005Z,991.00
2019-05-19T06:44:26.986Z,991.05
2019-05-19T06:45:27.036Z,991.06
2019-05-19T06:46:26.975Z,991.07
2019-05-19T06:47:26.984Z,991.03
2019-05-19T06:48:26.942Z,991.02
2019-05-19T06:49:26.930Z,991.01
2019-05-19T06:50:26.919Z,991.03
2019-05-19T06:51:26.906Z,991.04
2019-05-19T06:52:26.927Z,991.07
2019-05-19T06:53:26.886Z,991.02
2019-05-19T06:54:26.899Z,991.04
2019-05-19T06:55:26.946Z,991.05
2019-05-19T06:56:26.859Z,991.05
2019-05-19T06:57:26.844Z,991.10
2019-05-19T06:58:26.854Z,991.06
2019-05-19T06:59:26.814Z,991.09
2019-05-19T07:00:26.827Z,991.09
2019-05-19T07:01:26.798Z,991.05
2019-05-19T07:02:26.783Z,991.07
2019-05-19T07:03:26.774Z,991.06
2019-05-19T07:04:26.765Z,991.07
2019-05-19T07:05:26.753Z,991.07
2019-05-19T07:06:26.751Z,991.01
2019-05-19T07:07:26.743Z,991.02
2019-05-19T07:08:26.716Z,991.03
2019-05-19T07:09:26.800Z,991.08
2019-05-19T07:10:26.694Z,991.03
2019-05-19T07:11:26.684Z,991.04
2019-05-19T07:12:26.682Z,991.06
2019-05-19T07:13:26.696Z,991.04
2019-05-19T07:14:26.678Z,991.09
2019-05-19T07:15:26.639Z,991.06
2019-05-19T07:16:26.629Z,991.06
2019-05-19T07:17:26.630Z,991.01
2019-05-19T07:18:26.615Z,991.03
2019-05-19T07:19:26.596Z,990.98
2019-05-19T07:20:26.583Z,991.01
2019-05-19T07:21:26.578Z,991.00
2019-05-19T07:22:26.554Z,990.93
2019-05-19T07:23:28.604Z,990.95
2019-05-19T07:24:26.539Z,990.92
2019-05-19T07:25:26.548Z,990.93
2019-05-19T07:26:26.516Z,990.96
2019-05-19T07:27:26.523Z,990.96
2019-05-19T07:28:26.507Z,990.98
2019-05-19T07:29:26.482Z,990.95
2019-05-19T07:30:26.490Z,990.98
2019-05-19T07:31:26.463Z,990.97
2019-05-19T07:32:26.451Z,990.95
2019-05-19T07:33:26.450Z,991.00
2019-05-19T07:34:26.431Z,990.93
2019-05-19T07:35:26.419Z,990.89
2019-05-19T07:36:26.418Z,990.91
2019-05-19T07:37:26.395Z,990.90
2019-05-19T07:38:26.384Z,990.90
2019-05-19T07:39:26.386Z,990.91
2019-05-19T07:40:26.359Z,990.91
2019-05-19T07:41:26.374Z,990.91
2019-05-19T07:42:26.342Z,990.88
2019-05-19T07:43:26.391Z,990.90
2019-05-19T07:44:26.314Z,990.92
2019-05-19T07:45:26.314Z,990.93
2019-05-19T07:46:26.306Z,990.93
2019-05-19T07:47:26.331Z,990.94
2019-05-19T07:48:26.270Z,990.94
2019-05-19T07:49:26.257Z,990.95
2019-05-19T07:50:26.247Z,990.93
2019-05-19T07:51:26.235Z,990.90
2019-05-19T07:52:26.245Z,990.88
2019-05-19T07:53:26.217Z,990.91
2019-05-19T07:54:26.226Z,990.92
2019-05-19T07:55:26.202Z,990.92
2019-05-19T07:56:26.198Z,990.91
2019-05-19T07:57:26.207Z,990.89
2019-05-19T07:58:26.186Z,990.92
2019-05-19T07:59:26.170Z,990.84
2019-05-19T08:00:26.159Z,990.88
2019-05-19T08:01:26.174Z,990.85
2019-05-19T08:02:26.170Z,990.83
2019-05-19T08:03:26.110Z,990.83
2019-05-19T08:04:26.086Z,990.85
2019-05-19T08:05:26.126Z,990.84
2019-05-19T08:06:26.067Z,990.87
2019-05-19T08:07:26.063Z,990.86
2019-05-19T08:08:26.055Z,990.86
2019-05-19T08:09:26.034Z,990.87
2019-05-19T08:10:26.034Z,990.89
2019-05-19T08:11:26.028Z,990.88
2019-05-19T08:12:25.999Z,990.87
2019-05-19T08:13:25.992Z,990.86
2019-05-19T08:14:25.977Z,990.88
2019-05-19T08:15:26.045Z,990.85
2019-05-19T08:16:25.970Z,990.83
2019-05-19T08:17:26.149Z,990.81
2019-05-19T08:18:25.938Z,990.80
2019-05-19T08:19:25.925Z,990.84
2019-05-19T08:20:25.943Z,990.80
2019-05-19T08:21:25.895Z,990.84
2019-05-19T08:22:25.902Z,990.85
2019-05-19T08:23:25.878Z,990.84
2019-05-19T08:24:25.867Z,990.82
2019-05-19T08:25:25.854Z,990.81
2019-05-19T08:26:25.846Z,990.79
2019-05-19T08:27:25.858Z,990.80
2019-05-19T08:28:25.834Z,990.83
2019-05-19T08:29:25.811Z,990.81
2019-05-19T08:30:25.827Z,990.81
2019-05-19T08:31:25.790Z,990.81
2019-05-19T08:32:25.786Z,990.82
2019-05-19T08:33:25.811Z,990.84
2019-05-19T08:34:25.798Z,990.85
2019-05-19T08:35:25.748Z,990.87
2019-05-19T08:36:25.771Z,990.82
2019-05-19T08:37:25.722Z,990.88
2019-05-19T08:38:25.715Z,990.90
2019-05-19T08:39:25.724Z,990.83
2019-05-19T08:40:25.710Z,990.88
2019-05-19T08:41:25.674Z,990.89
2019-05-19T08:42:25.682Z,990.88
2019-05-19T08:43:25.674Z,990.86
2019-05-19T08:44:25.650Z,990.85
2019-05-19T08:45:25.635Z,990.88
2019-05-19T08:46:25.653Z,990.87
2019-05-19T08:47:25.606Z,990.85
2019-05-19T08:48:25.602Z,990.84
2019-05-19T08:49:25.689Z,990.83
2019-05-19T08:50:25.575Z,990.83
2019-05-19T08:51:25.586Z,990.82
2019-05-19T08:52:25.557Z,990.81
2019-05-19T08:53:25.546Z,990.84
2019-05-19T08:54:25.582Z,990.81
2019-05-19T08:55:25.522Z,990.78
2019-05-19T08:56:25.549Z,990.79
2019-05-19T08:57:25.609Z,990.80
2019-05-19T08:58:25.494Z,990.84
2019-05-19T08:59:25.478Z,990.81
2019-05-19T09:00:25.498Z,990.82
2019-05-19T09:01:25.523Z,990.83
2019-05-19T09:02:25.446Z,990.79
2019-05-19T09:03:25.442Z,990.75
2019-05-19T09:04:25.446Z,990.80
2019-05-19T09:05:25.414Z,990.81
2019-05-19T09:06:25.411Z,990.72
2019-05-19T09:07:25.411Z,990.73
2019-05-19T09:08:25.390Z,990.73
2019-05-19T09:09:25.378Z,990.72
2019-05-19T09:10:25.360Z,990.73
2019-05-19T09:11:25.347Z,990.75
2019-05-19T09:12:25.373Z,990.72
2019-05-19T09:13:25.357Z,990.72
2019-05-19T09:14:25.326Z,990.64
2019-05-19T09:15:25.302Z,990.68
2019-05-19T09:16:25.387Z,990.71
2019-05-19T09:17:25.278Z,990.71
2019-05-19T09:18:25.276Z,990.69
2019-05-19T09:19:25.274Z,990.70
2019-05-19T09:20:25.323Z,990.71
2019-05-19T09:21:25.271Z,990.67
2019-05-19T09:22:25.246Z,990.70
2019-05-19T09:23:25.250Z,990.69
2019-05-19T09:24:30.391Z,990.66
2019-05-19T09:25:26.198Z,990.68
2019-05-19T09:26:25.186Z,990.65
2019-05-19T09:27:25.174Z,990.67
2019-05-19T09:28:25.170Z,990.62
2019-05-19T09:29:25.153Z,990.61
2019-05-19T09:30:25.143Z,990.69
2019-05-19T09:31:25.146Z,990.66
2019-05-19T09:32:25.163Z,990.63
2019-05-19T09:33:25.115Z,990.58
2019-05-19T09:34:25.097Z,990.60
2019-05-19T09:35:25.094Z,990.58
2019-05-19T09:36:25.071Z,990.55
2019-05-19T09:37:25.074Z,990.59
2019-05-19T09:38:25.052Z,990.62
2019-05-19T09:39:25.056Z,990.59
2019-05-19T09:40:26.807Z,990.56
2019-05-19T09:41:25.014Z,990.52
2019-05-19T09:42:25.060Z,990.55
2019-05-19T09:43:25.006Z,990.56
2019-05-19T09:44:24.990Z,990.55
2019-05-19T09:45:24.986Z,990.51
2019-05-19T09:46:24.976Z,990.46
2019-05-19T09:47:24.954Z,990.46
2019-05-19T09:48:24.944Z,990.43
2019-05-19T09:49:24.944Z,990.43
2019-05-19T09:50:24.966Z,990.44
2019-05-19T09:51:24.933Z,990.42
2019-05-19T09:52:24.891Z,990.39
2019-05-19T09:53:24.884Z,990.35
2019-05-19T09:54:24.919Z,990.32
2019-05-19T09:55:24.884Z,990.37
2019-05-19T09:56:24.846Z,990.38
2019-05-19T09:57:24.852Z,990.40
2019-05-19T09:58:24.864Z,990.40
2019-05-19T09:59:24.818Z,990.43
2019-05-19T10:00:24.808Z,990.41
2019-05-19T10:01:24.794Z,990.37
2019-05-19T10:02:24.791Z,990.39
2019-05-19T10:03:24.789Z,990.38
2019-05-19T10:04:24.763Z,990.42
2019-05-19T10:05:24.754Z,990.39
2019-05-19T10:06:24.756Z,990.42
2019-05-19T10:07:24.728Z,990.35
2019-05-19T10:08:24.729Z,990.37
2019-05-19T10:09:24.720Z,990.36
2019-05-19T10:10:24.707Z,990.36
2019-05-19T10:11:24.701Z,990.36
2019-05-19T10:12:24.674Z,990.35
2019-05-19T10:13:24.704Z,990.36
2019-05-19T10:14:24.713Z,990.30
2019-05-19T10:15:24.643Z,990.27
2019-05-19T10:16:24.632Z,990.26
2019-05-19T10:17:24.623Z,990.29
2019-05-19T10:18:24.618Z,990.29
2019-05-19T10:19:24.611Z,990.29
2019-05-19T10:20:24.604Z,990.26
2019-05-19T10:21:24.604Z,990.25
2019-05-19T10:22:24.564Z,990.26
2019-05-19T10:23:24.560Z,990.28
2019-05-19T10:24:24.547Z,990.26
2019-05-19T10:25:24.620Z,990.28
2019-05-19T10:26:24.532Z,990.28
2019-05-19T10:27:24.515Z,990.23
2019-05-19T10:28:24.504Z,990.25
2019-05-19T10:29:24.483Z,990.20
2019-05-19T10:30:24.480Z,990.23
2019-05-19T10:31:24.479Z,990.21
2019-05-19T10:32:24.454Z,990.16
2019-05-19T10:33:24.452Z,990.18
2019-05-19T10:34:24.436Z,990.16
2019-05-19T10:35:24.426Z,990.15
2019-05-19T10:36:24.456Z,990.17
2019-05-19T10:37:24.440Z,990.20
2019-05-19T10:38:24.392Z,990.20
2019-05-19T10:39:24.385Z,990.21
2019-05-19T10:40:24.367Z,990.19
2019-05-19T10:41:24.367Z,990.20
2019-05-19T10:42:24.348Z,990.17
2019-05-19T10:43:24.347Z,990.17
2019-05-19T10:44:24.327Z,990.14
2019-05-19T10:45:24.320Z,990.11
2019-05-19T10:46:24.307Z,990.12
2019-05-19T10:47:24.288Z,990.20
2019-05-19T10:48:24.275Z,990.14
2019-05-19T10:49:24.267Z,990.07
2019-05-19T10:50:24.285Z,990.13
2019-05-19T10:51:24.259Z,990.13
2019-05-19T10:52:24.236Z,990.14
2019-05-19T10:53:24.227Z,990.09
2019-05-19T10:54:24.227Z,990.11
2019-05-19T10:55:35.375Z,990.11
2019-05-19T10:56:25.187Z,990.03
2019-05-19T10:57:24.247Z,990.08
2019-05-19T10:58:24.182Z,990.12
2019-05-19T10:59:24.172Z,990.08
2019-05-19T11:00:24.167Z,990.07
2019-05-19T11:01:24.140Z,990.05
2019-05-19T11:02:24.131Z,990.00
2019-05-19T11:03:24.156Z,990.06
2019-05-19T11:04:24.115Z,989.99
2019-05-19T11:05:24.100Z,989.95
2019-05-19T11:06:24.100Z,989.97
2019-05-19T11:07:24.075Z,989.98
2019-05-19T11:08:24.092Z,989.96
2019-05-19T11:09:24.052Z,989.98
2019-05-19T11:10:24.044Z,989.93
2019-05-19T11:11:24.047Z,989.95
2019-05-19T11:12:24.033Z,989.93
2019-05-19T11:13:24.051Z,989.96
2019-05-19T11:14:24.004Z,989.94
2019-05-19T11:15:23.985Z,989.88
2019-05-19T11:16:23.999Z,989.90
2019-05-19T11:17:23.968Z,989.85
2019-05-19T11:18:23.968Z,989.86
2019-05-19T11:19:23.943Z,989.86
2019-05-19T11:20:23.948Z,989.87
2019-05-19T11:21:23.923Z,989.82
2019-05-19T11:22:23.920Z,989.79
2019-05-19T11:23:23.936Z,989.80
2019-05-19T11:24:23.896Z,989.82
2019-05-19T11:25:33.564Z,989.80
2019-05-19T11:26:24.924Z,989.78
2019-05-19T11:27:23.856Z,989.77
2019-05-19T11:28:23.888Z,989.77
2019-05-19T11:29:23.836Z,989.75
2019-05-19T11:30:23.904Z,989.77
2019-05-19T11:31:23.815Z,989.74
2019-05-19T11:32:23.804Z,989.73
2019-05-19T11:33:23.792Z,989.76
2019-05-19T11:34:23.795Z,989.77
2019-05-19T11:35:23.774Z,989.78
2019-05-19T11:36:23.768Z,989.81
2019-05-19T11:37:23.778Z,989.74
2019-05-19T11:38:23.792Z,989.74
2019-05-19T11:39:23.739Z,989.81
2019-05-19T11:40:23.720Z,989.76
2019-05-19T11:41:23.721Z,989.77
2019-05-19T11:42:23.696Z,989.76
2019-05-19T11:43:23.758Z,989.76
2019-05-19T11:44:23.676Z,989.77
2019-05-19T11:45:23.676Z,989.73
2019-05-19T11:46:23.655Z,989.70
2019-05-19T11:47:23.647Z,989.72
2019-05-19T11:48:23.639Z,989.74
2019-05-19T11:49:23.676Z,989.78
2019-05-19T11:50:23.631Z,989.73
2019-05-19T11:51:23.603Z,989.75
2019-05-19T11:52:23.591Z,989.70
2019-05-19T11:53:23.604Z,989.67
2019-05-19T11:54:23.571Z,989.71
2019-05-19T11:55:23.559Z,989.70
2019-05-19T11:56:23.551Z,989.73
2019-05-19T11:57:23.564Z,989.74
2019-05-19T11:58:23.523Z,989.76
2019-05-19T11:59:23.543Z,989.76
2019-05-19T12:00:23.512Z,989.78
2019-05-19T12:01:23.509Z,989.80
2019-05-19T12:02:23.480Z,989.81
2019-05-19T12:03:23.468Z,989.73
2019-05-19T12:04:23.455Z,989.76
2019-05-19T12:05:23.471Z,989.75
2019-05-19T12:06:38.101Z,989.74
2019-05-19T12:07:24.487Z,989.74
2019-05-19T12:08:23.408Z,989.75
2019-05-19T12:09:23.399Z,989.72
2019-05-19T12:10:23.444Z,989.71
2019-05-19T12:11:23.427Z,989.73
2019-05-19T12:12:23.376Z,989.70
2019-05-19T12:13:23.362Z,989.71
2019-05-19T12:14:23.352Z,989.67
2019-05-19T12:15:23.347Z,989.67
2019-05-19T12:16:23.351Z,989.62
2019-05-19T12:17:23.326Z,989.63
2019-05-19T12:18:23.295Z,989.64
2019-05-19T12:19:23.392Z,989.64
2019-05-19T12:20:23.279Z,989.65
2019-05-19T12:21:23.282Z,989.74
2019-05-19T12:22:23.280Z,989.73
2019-05-19T12:23:23.371Z,989.72
2019-05-19T12:24:23.235Z,989.76
2019-05-19T12:25:23.271Z,989.68
2019-05-19T12:26:23.883Z,989.66
2019-05-19T12:27:23.199Z,989.67
2019-05-19T12:28:23.212Z,989.65